DLH9901 EDDF-EDDS
Flight info
| Callsign | DLH9901 |
|---|---|
| Flight time | N/A |
| Altitude | 23000 |
| Route | ANEKI2L/18 ANEKI Y163 NEKLO Y171 INKAM N850 KRH T128 BADSO DCT EDDS DCT ETASA/N0443F220 T163 SPESA |
| Aircraft | A359/H-SDE2E3GHIJ3J4J5LM1ORWXY/LB1D1 |
Departure
| Time | 2026-05-07 18:10 |
|---|---|
| Airport | Frankfurt Main Airport (EDDF) |
Arrival
| Time | N/A |
|---|---|
| Airport | Stuttgart Airport (EDDS) |
| Time | Latitude | Longitude | Altitude | Speed | Heading |
|---|---|---|---|---|---|
| 2026-05-07 18:07 | 50.03294 | 8.52798 | 351 ft | 0 kts | 249° |
| 2026-05-07 18:07 | 50.03292 | 8.52787 | 336 ft | 4 kts | 249° |
| 2026-05-07 18:07 | 50.03274 | 8.52718 | 336 ft | 9 kts | 246° |
| 2026-05-07 18:08 | 50.03239 | 8.52630 | 351 ft | 10 kts | 229° |
| 2026-05-07 18:08 | 50.03170 | 8.52596 | 347 ft | 12 kts | 182° |
| 2026-05-07 18:08 | 50.03131 | 8.52597 | 342 ft | 0 kts | 179° |
| 2026-05-07 18:08 | 50.03126 | 8.52597 | 342 ft | 2 kts | 179° |
| 2026-05-07 18:09 | 50.03119 | 8.52597 | 342 ft | 0 kts | 179° |
| 2026-05-07 18:09 | 50.03102 | 8.52598 | 342 ft | 15 kts | 179° |
| 2026-05-07 18:09 | 50.02778 | 8.52604 | 342 ft | 86 kts | 180° |
| 2026-05-07 18:09 | 50.01886 | 8.52609 | 341 ft | 165 kts | 180° |
| 2026-05-07 18:10 | 50.00612 | 8.52614 | 884 ft | 187 kts | 179° |
| 2026-05-07 18:10 | 49.99309 | 8.52648 | 2049 ft | 187 kts | 177° |
| 2026-05-07 18:10 | 49.97963 | 8.52754 | 2568 ft | 215 kts | 176° |
| 2026-05-07 18:10 | 49.96404 | 8.52888 | 3290 ft | 230 kts | 177° |
| 2026-05-07 18:11 | 49.94784 | 8.53015 | 3822 ft | 236 kts | 177° |
| 2026-05-07 18:11 | 49.93667 | 8.53096 | 4330 ft | 237 kts | 178° |
| 2026-05-07 18:11 | 49.91488 | 8.53251 | 5815 ft | 238 kts | 178° |
| 2026-05-07 18:11 | 49.89826 | 8.53366 | 7009 ft | 238 kts | 179° |
| 2026-05-07 18:12 | 49.88158 | 8.53479 | 8143 ft | 242 kts | 179° |
| 2026-05-07 18:12 | 49.86465 | 8.53592 | 9275 ft | 246 kts | 179° |
| 2026-05-07 18:12 | 49.84736 | 8.53708 | 10395 ft | 250 kts | 179° |
| 2026-05-07 18:12 | 49.82986 | 8.53824 | 11448 ft | 255 kts | 179° |
| 2026-05-07 18:13 | 49.81198 | 8.53944 | 12525 ft | 259 kts | 179° |
| 2026-05-07 18:13 | 49.79387 | 8.54065 | 13621 ft | 263 kts | 179° |
| 2026-05-07 18:13 | 49.77549 | 8.54067 | 14597 ft | 269 kts | 185° |
| 2026-05-07 18:13 | 49.75589 | 8.53843 | 15131 ft | 294 kts | 187° |
| 2026-05-07 18:14 | 49.73464 | 8.53544 | 15544 ft | 320 kts | 187° |
| 2026-05-07 18:14 | 49.71145 | 8.53490 | 15944 ft | 346 kts | 176° |
| 2026-05-07 18:14 | 49.68761 | 8.54497 | 16450 ft | 367 kts | 158° |
| 2026-05-07 18:14 | 49.66431 | 8.56336 | 16888 ft | 380 kts | 151° |
| 2026-05-07 18:15 | 49.64206 | 8.58534 | 17054 ft | 383 kts | 147° |
| 2026-05-07 18:15 | 49.62017 | 8.60932 | 17048 ft | 384 kts | 145° |
| 2026-05-07 18:15 | 49.59856 | 8.63364 | 17044 ft | 385 kts | 145° |
| 2026-05-07 18:15 | 49.57681 | 8.65785 | 17049 ft | 385 kts | 146° |
| 2026-05-07 18:16 | 49.55502 | 8.68157 | 17052 ft | 385 kts | 146° |
| 2026-05-07 18:16 | 49.53291 | 8.70512 | 17050 ft | 385 kts | 147° |
| 2026-05-07 18:16 | 49.51084 | 8.72825 | 17045 ft | 385 kts | 147° |
| 2026-05-07 18:16 | 49.48857 | 8.75139 | 17049 ft | 385 kts | 147° |
| 2026-05-07 18:17 | 49.46647 | 8.77426 | 16986 ft | 380 kts | 147° |
| 2026-05-07 18:17 | 49.44482 | 8.79665 | 16522 ft | 372 kts | 147° |
| 2026-05-07 18:17 | 49.42329 | 8.81887 | 15748 ft | 374 kts | 147° |
| 2026-05-07 18:17 | 49.40173 | 8.84111 | 15114 ft | 372 kts | 147° |
| 2026-05-07 18:18 | 49.38066 | 8.86283 | 14560 ft | 368 kts | 147° |
| 2026-05-07 18:18 | 49.35948 | 8.88465 | 13964 ft | 365 kts | 147° |
| 2026-05-07 18:18 | 49.33848 | 8.90630 | 13308 ft | 362 kts | 147° |
| 2026-05-07 18:18 | 49.31769 | 8.92775 | 12632 ft | 359 kts | 147° |
| 2026-05-07 18:19 | 49.29709 | 8.94900 | 12000 ft | 356 kts | 147° |
| 2026-05-07 18:19 | 49.27663 | 8.97006 | 11403 ft | 352 kts | 147° |
| 2026-05-07 18:19 | 49.25639 | 8.99085 | 11110 ft | 350 kts | 147° |
| 2026-05-07 18:19 | 49.23626 | 9.01150 | 11043 ft | 351 kts | 147° |
| 2026-05-07 18:20 | 49.21589 | 9.03236 | 11065 ft | 351 kts | 147° |
| 2026-05-07 18:20 | 49.19560 | 9.05312 | 11063 ft | 351 kts | 147° |
| 2026-05-07 18:20 | 49.17529 | 9.07387 | 11047 ft | 351 kts | 147° |
| 2026-05-07 18:20 | 49.15502 | 9.09457 | 11045 ft | 351 kts | 147° |
| 2026-05-07 18:21 | 49.13477 | 9.11523 | 11045 ft | 351 kts | 147° |
| 2026-05-07 18:21 | 49.11440 | 9.13600 | 11045 ft | 351 kts | 147° |
| 2026-05-07 18:21 | 49.09414 | 9.15664 | 11061 ft | 351 kts | 147° |
| 2026-05-07 18:21 | 49.07384 | 9.17729 | 11060 ft | 350 kts | 147° |
| 2026-05-07 18:22 | 49.05426 | 9.19722 | 10834 ft | 324 kts | 147° |
| 2026-05-07 18:22 | 49.04218 | 9.20954 | 10514 ft | 307 kts | 148° |
| 2026-05-07 18:22 | 49.01885 | 9.23329 | 9557 ft | 301 kts | 148° |
| 2026-05-07 18:22 | 49.00150 | 9.25087 | 9154 ft | 296 kts | 148° |
| 2026-05-07 18:23 | 48.98563 | 9.27038 | 8762 ft | 293 kts | 137° |
| 2026-05-07 18:23 | 48.97168 | 9.29272 | 8327 ft | 290 kts | 134° |
| 2026-05-07 18:23 | 48.95817 | 9.31532 | 7898 ft | 288 kts | 134° |
| 2026-05-07 18:23 | 48.94476 | 9.33786 | 7485 ft | 286 kts | 134° |
| 2026-05-07 18:24 | 48.93147 | 9.36020 | 7079 ft | 284 kts | 134° |
| 2026-05-07 18:24 | 48.91820 | 9.38243 | 6650 ft | 282 kts | 134° |
| 2026-05-07 18:24 | 48.90506 | 9.40446 | 6218 ft | 281 kts | 134° |
| 2026-05-07 18:24 | 48.89192 | 9.42638 | 5786 ft | 279 kts | 133° |
| 2026-05-07 18:25 | 48.87881 | 9.44804 | 5371 ft | 277 kts | 134° |
| 2026-05-07 18:25 | 48.86573 | 9.46943 | 4952 ft | 275 kts | 134° |
| 2026-05-07 18:25 | 48.85274 | 9.49049 | 4530 ft | 273 kts | 133° |
| 2026-05-07 18:25 | 48.83857 | 9.50930 | 4132 ft | 269 kts | 150° |
| 2026-05-07 18:26 | 48.82178 | 9.52011 | 4008 ft | 255 kts | 162° |
| 2026-05-07 18:26 | 48.80543 | 9.52807 | 4006 ft | 240 kts | 163° |
| 2026-05-07 18:26 | 48.78959 | 9.53546 | 4004 ft | 238 kts | 163° |
| 2026-05-07 18:26 | 48.77378 | 9.54142 | 3992 ft | 237 kts | 176° |
| 2026-05-07 18:27 | 48.75849 | 9.53681 | 4001 ft | 216 kts | 213° |
| 2026-05-07 18:27 | 48.74869 | 9.52138 | 4006 ft | 195 kts | 240° |
| 2026-05-07 18:27 | 48.74340 | 9.50320 | 4023 ft | 185 kts | 255° |
| 2026-05-07 18:27 | 48.74100 | 9.49059 | 4018 ft | 185 kts | 256° |
| 2026-05-07 18:28 | 48.73616 | 9.46555 | 3998 ft | 183 kts | 256° |
| 2026-05-07 18:28 | 48.73283 | 9.44809 | 3973 ft | 169 kts | 256° |
| 2026-05-07 18:28 | 48.72952 | 9.43138 | 3796 ft | 165 kts | 255° |
| 2026-05-07 18:28 | 48.72625 | 9.41454 | 3556 ft | 164 kts | 256° |
| 2026-05-07 18:29 | 48.72314 | 9.39789 | 3324 ft | 162 kts | 256° |
| 2026-05-07 18:29 | 48.72016 | 9.38214 | 3109 ft | 153 kts | 256° |
| 2026-05-07 18:29 | 48.71733 | 9.36719 | 2901 ft | 144 kts | 256° |
| 2026-05-07 18:29 | 48.71464 | 9.35300 | 2727 ft | 136 kts | 257° |
| 2026-05-07 18:30 | 48.71207 | 9.33939 | 2536 ft | 133 kts | 257° |
| 2026-05-07 18:30 | 48.70956 | 9.32607 | 2352 ft | 132 kts | 257° |
| 2026-05-07 18:30 | 48.70703 | 9.31264 | 2160 ft | 133 kts | 256° |
| 2026-05-07 18:30 | 48.70449 | 9.29915 | 1962 ft | 134 kts | 256° |
| 2026-05-07 18:31 | 48.70175 | 9.28474 | 1808 ft | 151 kts | 256° |
| 2026-05-07 18:31 | 48.69975 | 9.27420 | 1685 ft | 157 kts | 256° |
| 2026-05-07 18:31 | 48.69689 | 9.25830 | 1442 ft | 155 kts | 255° |
| 2026-05-07 18:31 | 48.69382 | 9.24291 | 1252 ft | 151 kts | 255° |
| 2026-05-07 18:32 | 48.69122 | 9.22912 | 1231 ft | 135 kts | 254° |
| 2026-05-07 18:32 | 48.68831 | 9.21338 | 1628 ft | 177 kts | 256° |
| 2026-05-07 18:32 | 48.68525 | 9.19632 | 2547 ft | 168 kts | 256° |
| 2026-05-07 18:32 | 48.68196 | 9.17920 | 3253 ft | 171 kts | 255° |
| 2026-05-07 18:33 | 48.67844 | 9.16131 | 3732 ft | 188 kts | 255° |
| 2026-05-07 18:33 | 48.67448 | 9.14093 | 4124 ft | 208 kts | 255° |
| 2026-05-07 18:33 | 48.67358 | 9.11888 | 4434 ft | 212 kts | 282° |
| 2026-05-07 18:33 | 48.68070 | 9.09936 | 4800 ft | 226 kts | 314° |
| 2026-05-07 18:34 | 48.69429 | 9.08710 | 4979 ft | 230 kts | 342° |
| 2026-05-07 18:34 | 48.71011 | 9.08288 | 5003 ft | 231 kts | 352° |
| 2026-05-07 18:34 | 48.72614 | 9.08066 | 4995 ft | 232 kts | 354° |
| 2026-05-07 18:34 | 48.74208 | 9.08422 | 4999 ft | 236 kts | 21° |
| 2026-05-07 18:35 | 48.75496 | 9.09941 | 4999 ft | 239 kts | 52° |
| 2026-05-07 18:35 | 48.76119 | 9.12254 | 4995 ft | 241 kts | 82° |
| 2026-05-07 18:35 | 48.75906 | 9.14733 | 4996 ft | 242 kts | 112° |
| 2026-05-07 18:35 | 48.74928 | 9.16783 | 4999 ft | 241 kts | 138° |
| 2026-05-07 18:36 | 48.73630 | 9.18410 | 4995 ft | 242 kts | 143° |
| 2026-05-07 18:36 | 48.72293 | 9.19954 | 4998 ft | 242 kts | 143° |
| 2026-05-07 18:36 | 48.70945 | 9.21495 | 4998 ft | 242 kts | 143° |
| 2026-05-07 18:36 | 48.69596 | 9.23037 | 4996 ft | 242 kts | 143° |
| 2026-05-07 18:37 | 48.68279 | 9.24549 | 4995 ft | 242 kts | 143° |
| 2026-05-07 18:37 | 48.66938 | 9.26091 | 4996 ft | 241 kts | 143° |
| 2026-05-07 18:37 | 48.65605 | 9.27624 | 4996 ft | 241 kts | 143° |
| 2026-05-07 18:37 | 48.64460 | 9.29508 | 4997 ft | 242 kts | 119° |
| 2026-05-07 18:38 | 48.64033 | 9.31910 | 5003 ft | 241 kts | 91° |
| 2026-05-07 18:38 | 48.64094 | 9.34424 | 4997 ft | 241 kts | 84° |
| 2026-05-07 18:38 | 48.64244 | 9.36963 | 4998 ft | 241 kts | 84° |
| 2026-05-07 18:38 | 48.64401 | 9.39480 | 5000 ft | 241 kts | 84° |
| 2026-05-07 18:39 | 48.64693 | 9.41976 | 5005 ft | 241 kts | 75° |
| 2026-05-07 18:39 | 48.65114 | 9.44417 | 4997 ft | 241 kts | 73° |
| 2026-05-07 18:39 | 48.65555 | 9.46882 | 4999 ft | 241 kts | 73° |
| 2026-05-07 18:39 | 48.65997 | 9.49339 | 4720 ft | 242 kts | 73° |
| 2026-05-07 18:40 | 48.66434 | 9.51788 | 4440 ft | 239 kts | 73° |
| 2026-05-07 18:40 | 48.66867 | 9.54205 | 4175 ft | 236 kts | 72° |
| 2026-05-07 18:40 | 48.67639 | 9.56330 | 4017 ft | 229 kts | 44° |
| 2026-05-07 18:40 | 48.68937 | 9.57473 | 3990 ft | 210 kts | 11° |
| 2026-05-07 18:41 | 48.70349 | 9.57337 | 3998 ft | 204 kts | 338° |
| 2026-05-07 18:41 | 48.71431 | 9.56042 | 4000 ft | 204 kts | 304° |
| 2026-05-07 18:41 | 48.71982 | 9.54034 | 4007 ft | 204 kts | 286° |
| 2026-05-07 18:41 | 48.72328 | 9.51938 | 4004 ft | 206 kts | 284° |
| 2026-05-07 18:42 | 48.72642 | 9.49870 | 3996 ft | 201 kts | 284° |
| 2026-05-07 18:42 | 48.72941 | 9.47875 | 4001 ft | 185 kts | 284° |
| 2026-05-07 18:42 | 48.73187 | 9.46038 | 4005 ft | 175 kts | 278° |
| 2026-05-07 18:42 | 48.73108 | 9.44192 | 3914 ft | 177 kts | 261° |
| 2026-05-07 18:43 | 48.72818 | 9.42393 | 3677 ft | 172 kts | 256° |
| 2026-05-07 18:43 | 48.72488 | 9.40710 | 3449 ft | 161 kts | 256° |
| 2026-05-07 18:43 | 48.72189 | 9.39139 | 3238 ft | 151 kts | 256° |
| 2026-05-07 18:43 | 48.71909 | 9.37649 | 3012 ft | 142 kts | 256° |
| 2026-05-07 18:44 | 48.71647 | 9.36264 | 2824 ft | 131 kts | 256° |
| 2026-05-07 18:44 | 48.71399 | 9.34950 | 2667 ft | 129 kts | 257° |
| 2026-05-07 18:44 | 48.71151 | 9.33635 | 2488 ft | 130 kts | 256° |
| 2026-05-07 18:44 | 48.70903 | 9.32321 | 2302 ft | 130 kts | 256° |
| 2026-05-07 18:45 | 48.70653 | 9.30996 | 2115 ft | 130 kts | 256° |
| 2026-05-07 18:45 | 48.70404 | 9.29678 | 1932 ft | 130 kts | 256° |
| 2026-05-07 18:45 | 48.70153 | 9.28354 | 1746 ft | 131 kts | 257° |
| 2026-05-07 18:45 | 48.69903 | 9.27030 | 1576 ft | 131 kts | 256° |
| 2026-05-07 18:46 | 48.69655 | 9.25713 | 1406 ft | 131 kts | 255° |
| 2026-05-07 18:46 | 48.69402 | 9.24380 | 1268 ft | 133 kts | 255° |
| 2026-05-07 18:46 | 48.69156 | 9.23087 | 1231 ft | 119 kts | 253° |
| 2026-05-07 18:46 | 48.68938 | 9.21941 | 1259 ft | 115 kts | 253° |
| 2026-05-07 18:47 | 48.68665 | 9.20439 | 1752 ft | 172 kts | 256° |
| 2026-05-07 18:47 | 48.68333 | 9.18578 | 2917 ft | 187 kts | 256° |
| 2026-05-07 18:47 | 48.68002 | 9.16705 | 3768 ft | 187 kts | 256° |
| 2026-05-07 18:47 | 48.67644 | 9.14695 | 4141 ft | 210 kts | 256° |
| 2026-05-07 18:48 | 48.67254 | 9.12415 | 4450 ft | 238 kts | 254° |
| 2026-05-07 18:48 | 48.66372 | 9.10182 | 4881 ft | 260 kts | 227° |
| 2026-05-07 18:48 | 48.64819 | 9.08667 | 4988 ft | 267 kts | 200° |
| 2026-05-07 18:48 | 48.63003 | 9.08359 | 5003 ft | 269 kts | 174° |
| 2026-05-07 18:49 | 48.61252 | 9.09318 | 4995 ft | 272 kts | 147° |
| 2026-05-07 18:49 | 48.59951 | 9.11374 | 4995 ft | 272 kts | 120° |
| 2026-05-07 18:49 | 48.59385 | 9.14065 | 5004 ft | 272 kts | 94° |
| 2026-05-07 18:49 | 48.59457 | 9.16919 | 4994 ft | 271 kts | 80° |
| 2026-05-07 18:50 | 48.59878 | 9.19688 | 4994 ft | 272 kts | 74° |
| 2026-05-07 18:50 | 48.60378 | 9.22442 | 5000 ft | 272 kts | 73° |
| 2026-05-07 18:50 | 48.60887 | 9.25203 | 4992 ft | 272 kts | 73° |
| 2026-05-07 18:50 | 48.61394 | 9.27958 | 4924 ft | 272 kts | 73° |
| 2026-05-07 18:51 | 48.61898 | 9.30707 | 4485 ft | 271 kts | 73° |
| 2026-05-07 18:51 | 48.62396 | 9.33439 | 4115 ft | 267 kts | 73° |
| 2026-05-07 18:51 | 48.62884 | 9.36132 | 4003 ft | 266 kts | 73° |
| 2026-05-07 18:51 | 48.63370 | 9.38830 | 3996 ft | 266 kts | 73° |
| 2026-05-07 18:52 | 48.63852 | 9.41514 | 3993 ft | 260 kts | 73° |
| 2026-05-07 18:52 | 48.64307 | 9.44055 | 3991 ft | 242 kts | 73° |
| 2026-05-07 18:52 | 48.64733 | 9.46453 | 3995 ft | 234 kts | 73° |
| 2026-05-07 18:52 | 48.65155 | 9.48834 | 4003 ft | 234 kts | 73° |
| 2026-05-07 18:53 | 48.65577 | 9.51225 | 4000 ft | 234 kts | 73° |
| 2026-05-07 18:53 | 48.65999 | 9.53599 | 4002 ft | 234 kts | 73° |
| 2026-05-07 18:53 | 48.66722 | 9.55772 | 4002 ft | 232 kts | 47° |
| 2026-05-07 18:53 | 48.68041 | 9.57096 | 4005 ft | 228 kts | 16° |
| 2026-05-07 18:54 | 48.69601 | 9.57340 | 4002 ft | 223 kts | 356° |
| 2026-05-07 18:54 | 48.71125 | 9.57181 | 4002 ft | 218 kts | 354° |
| 2026-05-07 18:54 | 48.72599 | 9.56762 | 3997 ft | 217 kts | 336° |
| 2026-05-07 18:54 | 48.73754 | 9.55332 | 4005 ft | 216 kts | 304° |
| 2026-05-07 18:55 | 48.74246 | 9.53217 | 4009 ft | 216 kts | 279° |
| 2026-05-07 18:55 | 48.74304 | 9.50925 | 4002 ft | 218 kts | 266° |
| 2026-05-07 18:55 | 48.74032 | 9.48727 | 3992 ft | 206 kts | 256° |
| 2026-05-07 18:55 | 48.73634 | 9.46727 | 3999 ft | 192 kts | 254° |
| 2026-05-07 18:56 | 48.73269 | 9.44873 | 3994 ft | 175 kts | 255° |
| 2026-05-07 18:56 | 48.72941 | 9.43134 | 3792 ft | 169 kts | 256° |
| 2026-05-07 18:56 | 48.72634 | 9.41491 | 3547 ft | 159 kts | 256° |
| 2026-05-07 18:56 | 48.72341 | 9.39940 | 3324 ft | 147 kts | 256° |
| 2026-05-07 18:57 | 48.72070 | 9.38512 | 3137 ft | 137 kts | 257° |
| 2026-05-07 18:57 | 48.71818 | 9.37172 | 2952 ft | 129 kts | 256° |
| 2026-05-07 18:57 | 48.71572 | 9.35863 | 2786 ft | 129 kts | 256° |
| 2026-05-07 18:57 | 48.71325 | 9.34553 | 2603 ft | 129 kts | 256° |
| 2026-05-07 18:58 | 48.71077 | 9.33244 | 2429 ft | 129 kts | 256° |
| 2026-05-07 18:58 | 48.70830 | 9.31936 | 2236 ft | 130 kts | 256° |
| 2026-05-07 18:58 | 48.70583 | 9.30625 | 2062 ft | 129 kts | 256° |
| 2026-05-07 18:58 | 48.70337 | 9.29324 | 1880 ft | 130 kts | 256° |
| 2026-05-07 18:59 | 48.70085 | 9.27995 | 1707 ft | 130 kts | 256° |
| 2026-05-07 18:59 | 48.69837 | 9.26679 | 1523 ft | 130 kts | 255° |
| 2026-05-07 18:59 | 48.69588 | 9.25361 | 1359 ft | 131 kts | 255° |
| 2026-05-07 18:59 | 48.69337 | 9.24040 | 1216 ft | 128 kts | 255° |
| 2026-05-07 19:00 | 48.69091 | 9.22757 | 1255 ft | 150 kts | 254° |
| 2026-05-07 19:00 | 48.68773 | 9.20998 | 2050 ft | 181 kts | 256° |
| 2026-05-07 19:00 | 48.68464 | 9.19206 | 2954 ft | 176 kts | 257° |
| 2026-05-07 19:00 | 48.68130 | 9.17311 | 3366 ft | 199 kts | 256° |
| 2026-05-07 19:01 | 48.67757 | 9.15183 | 3813 ft | 219 kts | 257° |
| 2026-05-07 19:01 | 48.67487 | 9.12787 | 4209 ft | 243 kts | 272° |
| 2026-05-07 19:01 | 48.67967 | 9.10295 | 4740 ft | 257 kts | 300° |
| 2026-05-07 19:01 | 48.69183 | 9.08306 | 4960 ft | 260 kts | 326° |
| 2026-05-07 19:02 | 48.70874 | 9.07350 | 5004 ft | 263 kts | 352° |
| 2026-05-07 19:02 | 48.72682 | 9.07662 | 4991 ft | 266 kts | 19° |
| 2026-05-07 19:02 | 48.74232 | 9.09201 | 5004 ft | 269 kts | 45° |
| 2026-05-07 19:02 | 48.75213 | 9.11597 | 5009 ft | 271 kts | 68° |
| 2026-05-07 19:03 | 48.75793 | 9.14317 | 4997 ft | 271 kts | 73° |
| 2026-05-07 19:03 | 48.76298 | 9.17035 | 4999 ft | 272 kts | 73° |
| 2026-05-07 19:03 | 48.76811 | 9.19830 | 4692 ft | 274 kts | 73° |
| 2026-05-07 19:03 | 48.77314 | 9.22592 | 4318 ft | 269 kts | 73° |
| 2026-05-07 19:04 | 48.77808 | 9.25316 | 4048 ft | 265 kts | 73° |
| 2026-05-07 19:04 | 48.78294 | 9.28005 | 3997 ft | 266 kts | 73° |
| 2026-05-07 19:04 | 48.78784 | 9.30715 | 4000 ft | 266 kts | 73° |
| 2026-05-07 19:04 | 48.79266 | 9.33381 | 3997 ft | 265 kts | 73° |
| 2026-05-07 19:05 | 48.79752 | 9.36076 | 4002 ft | 265 kts | 73° |
| 2026-05-07 19:05 | 48.80247 | 9.38822 | 4000 ft | 265 kts | 73° |
| 2026-05-07 19:05 | 48.80727 | 9.41479 | 4001 ft | 265 kts | 73° |
| 2026-05-07 19:05 | 48.81223 | 9.44218 | 4004 ft | 265 kts | 73° |
| 2026-05-07 19:06 | 48.81638 | 9.46937 | 3994 ft | 266 kts | 82° |
| 2026-05-07 19:06 | 48.80452 | 9.51688 | 3997 ft | 235 kts | 140° |
| 2026-05-07 19:06 | 48.79036 | 9.52671 | 3994 ft | 218 kts | 172° |
| 2026-05-07 19:07 | 48.77608 | 9.52370 | 3983 ft | 201 kts | 207° |
| 2026-05-07 19:07 | 48.76519 | 9.51241 | 4013 ft | 181 kts | 221° |
| 2026-05-07 19:07 | 48.75597 | 9.50027 | 4013 ft | 175 kts | 223° |
| 2026-05-07 19:07 | 48.74683 | 9.48782 | 3998 ft | 179 kts | 224° |
| 2026-05-07 19:08 | 48.73888 | 9.47334 | 4005 ft | 180 kts | 244° |
| 2026-05-07 19:08 | 48.73453 | 9.45583 | 3997 ft | 177 kts | 255° |
| 2026-05-07 19:08 | 48.73102 | 9.43811 | 3876 ft | 175 kts | 253° |
| 2026-05-07 19:08 | 48.72751 | 9.42099 | 3626 ft | 164 kts | 256° |
| 2026-05-07 19:09 | 48.72450 | 9.40494 | 3408 ft | 154 kts | 256° |
| 2026-05-07 19:09 | 48.72165 | 9.38988 | 3198 ft | 144 kts | 256° |
| 2026-05-07 19:09 | 48.71898 | 9.37580 | 2980 ft | 134 kts | 256° |
| 2026-05-07 19:09 | 48.71655 | 9.36253 | 2787 ft | 128 kts | 256° |
| 2026-05-07 19:10 | 48.71414 | 9.34959 | 2653 ft | 129 kts | 256° |
| 2026-05-07 19:10 | 48.71174 | 9.33648 | 2487 ft | 129 kts | 256° |
| 2026-05-07 19:10 | 48.70922 | 9.32351 | 2296 ft | 129 kts | 255° |
| 2026-05-07 19:10 | 48.70669 | 9.31046 | 2089 ft | 129 kts | 256° |
| 2026-05-07 19:11 | 48.70423 | 9.29743 | 1931 ft | 129 kts | 255° |
| 2026-05-07 19:11 | 48.70168 | 9.28430 | 1784 ft | 130 kts | 255° |
| 2026-05-07 19:11 | 48.69919 | 9.27123 | 1618 ft | 130 kts | 255° |
| 2026-05-07 19:11 | 48.69678 | 9.25809 | 1427 ft | 130 kts | 256° |
| 2026-05-07 19:12 | 48.69427 | 9.24494 | 1272 ft | 130 kts | 252° |
| 2026-05-07 19:12 | 48.69201 | 9.23329 | 1225 ft | 122 kts | 254° |
| 2026-05-07 19:12 | 48.68983 | 9.22181 | 1250 ft | 112 kts | 254° |
| 2026-05-07 19:12 | 48.68717 | 9.20756 | 1682 ft | 164 kts | 256° |
| 2026-05-07 19:13 | 48.68396 | 9.18911 | 2549 ft | 190 kts | 257° |
| 2026-05-07 19:13 | 48.68057 | 9.17006 | 3322 ft | 194 kts | 256° |
| 2026-05-07 19:13 | 48.67675 | 9.14890 | 3685 ft | 224 kts | 256° |
| 2026-05-07 19:13 | 48.67244 | 9.12494 | 4181 ft | 246 kts | 256° |
| 2026-05-07 19:14 | 48.66762 | 9.09913 | 4759 ft | 260 kts | 252° |
| 2026-05-07 19:14 | 48.65818 | 9.07577 | 4967 ft | 265 kts | 226° |
| 2026-05-07 19:14 | 48.64266 | 9.06089 | 4992 ft | 267 kts | 200° |
| 2026-05-07 19:14 | 48.62430 | 9.05814 | 4995 ft | 269 kts | 173° |
| 2026-05-07 19:15 | 48.60692 | 9.06814 | 4992 ft | 271 kts | 146° |
| 2026-05-07 19:15 | 48.59421 | 9.08893 | 4992 ft | 272 kts | 119° |
| 2026-05-07 19:15 | 48.58891 | 9.11613 | 4997 ft | 271 kts | 93° |
| 2026-05-07 19:15 | 48.59100 | 9.14394 | 4924 ft | 262 kts | 76° |
| 2026-05-07 19:16 | 48.59549 | 9.17011 | 4752 ft | 251 kts | 74° |
| 2026-05-07 19:16 | 48.60004 | 9.19491 | 4600 ft | 241 kts | 73° |
| 2026-05-07 19:16 | 48.60296 | 9.21087 | 4518 ft | 235 kts | 73° |
| 2026-05-07 19:16 | 48.60865 | 9.24193 | 4230 ft | 227 kts | 73° |
| 2026-05-07 19:17 | 48.61143 | 9.25719 | 4053 ft | 226 kts | 73° |
| 2026-05-07 19:17 | 48.61570 | 9.28067 | 3997 ft | 236 kts | 73° |
| 2026-05-07 19:17 | 48.62007 | 9.30475 | 3991 ft | 238 kts | 73° |
| 2026-05-07 19:17 | 48.62596 | 9.33710 | 3994 ft | 239 kts | 73° |
| 2026-05-07 19:18 | 48.62887 | 9.35312 | 3992 ft | 239 kts | 73° |
| 2026-05-07 19:18 | 48.63330 | 9.37741 | 3994 ft | 239 kts | 73° |
| 2026-05-07 19:18 | 48.63768 | 9.40160 | 3993 ft | 239 kts | 73° |
| 2026-05-07 19:18 | 48.64208 | 9.42585 | 3995 ft | 239 kts | 73° |
| 2026-05-07 19:19 | 48.64647 | 9.45009 | 3994 ft | 239 kts | 73° |
| 2026-05-07 19:19 | 48.65084 | 9.47417 | 3996 ft | 239 kts | 73° |
| 2026-05-07 19:19 | 48.65525 | 9.49860 | 3997 ft | 239 kts | 73° |
| 2026-05-07 19:19 | 48.66034 | 9.52234 | 3990 ft | 239 kts | 63° |
| 2026-05-07 19:20 | 48.67105 | 9.54094 | 4000 ft | 235 kts | 32° |
| 2026-05-07 19:20 | 48.68630 | 9.54887 | 4003 ft | 233 kts | 4° |
| 2026-05-07 19:20 | 48.70236 | 9.54841 | 3991 ft | 226 kts | 355° |
| 2026-05-07 19:20 | 48.71703 | 9.54346 | 3983 ft | 210 kts | 332° |
| 2026-05-07 19:21 | 48.72733 | 9.52849 | 4004 ft | 206 kts | 300° |
| 2026-05-07 19:21 | 48.73302 | 9.50860 | 3997 ft | 206 kts | 290° |
| 2026-05-07 19:21 | 48.73708 | 9.48791 | 3982 ft | 200 kts | 279° |
| 2026-05-07 19:21 | 48.73643 | 9.46764 | 3990 ft | 190 kts | 258° |
| 2026-05-07 19:22 | 48.73289 | 9.44842 | 3968 ft | 189 kts | 253° |
| 2026-05-07 19:22 | 48.72905 | 9.42958 | 3781 ft | 185 kts | 255° |
| 2026-05-07 19:22 | 48.72558 | 9.41086 | 3516 ft | 185 kts | 256° |
| 2026-05-07 19:22 | 48.72219 | 9.39277 | 3244 ft | 173 kts | 255° |
| 2026-05-07 19:23 | 48.71895 | 9.37577 | 2992 ft | 163 kts | 255° |
| 2026-05-07 19:23 | 48.71596 | 9.35995 | 2788 ft | 151 kts | 255° |
| 2026-05-07 19:23 | 48.71315 | 9.34511 | 2590 ft | 141 kts | 255° |
| 2026-05-07 19:23 | 48.71055 | 9.33135 | 2397 ft | 133 kts | 256° |
| 2026-05-07 19:24 | 48.70804 | 9.31806 | 2219 ft | 128 kts | 255° |
| 2026-05-07 19:24 | 48.70560 | 9.30507 | 2051 ft | 128 kts | 255° |
| 2026-05-07 19:24 | 48.70318 | 9.29228 | 1865 ft | 129 kts | 255° |
| 2026-05-07 19:24 | 48.70070 | 9.27918 | 1693 ft | 129 kts | 255° |
| 2026-05-07 19:25 | 48.69823 | 9.26611 | 1513 ft | 129 kts | 255° |
| 2026-05-07 19:25 | 48.69576 | 9.25297 | 1365 ft | 129 kts | 255° |
| 2026-05-07 19:25 | 48.69329 | 9.24003 | 1227 ft | 129 kts | 255° |
| 2026-05-07 19:25 | 48.69094 | 9.22762 | 1234 ft | 115 kts | 254° |
| 2026-05-07 19:26 | 48.68881 | 9.21621 | 1264 ft | 127 kts | 254° |
| 2026-05-07 19:26 | 48.68572 | 9.20011 | 1924 ft | 178 kts | 254° |
| 2026-05-07 19:26 | 48.68236 | 9.18213 | 3135 ft | 171 kts | 256° |
| 2026-05-07 19:26 | 48.67909 | 9.16446 | 3732 ft | 186 kts | 256° |
| 2026-05-07 19:27 | 48.67532 | 9.14385 | 4037 ft | 220 kts | 255° |
| 2026-05-07 19:27 | 48.67102 | 9.12010 | 4509 ft | 245 kts | 255° |
| 2026-05-07 19:27 | 48.66691 | 9.09410 | 4917 ft | 262 kts | 261° |